createdAt,value
2022-12-27T00:00:14.485Z,0.70
2022-12-27T00:03:19.361Z,0.40
2022-12-27T00:06:26.136Z,0.50
2022-12-27T00:09:32.515Z,0.63
2022-12-27T00:12:37.500Z,0.37
2022-12-27T00:15:42.833Z,0.40
2022-12-27T00:18:49.873Z,0.40
2022-12-27T00:21:54.924Z,0.90
2022-12-27T00:25:01.050Z,0.40
2022-12-27T00:28:05.662Z,0.23
2022-12-27T00:31:11.060Z,0.30
2022-12-27T00:34:15.864Z,0.40
2022-12-27T00:37:20.649Z,0.60
2022-12-27T00:40:28.019Z,0.23
2022-12-27T00:43:35.459Z,0.50
2022-12-27T00:46:40.391Z,0.40
2022-12-27T00:49:45.473Z,1.23
2022-12-27T00:52:50.299Z,0.47
2022-12-27T00:55:58.355Z,0.70
2022-12-27T00:59:05.237Z,0.40
2022-12-27T01:02:11.723Z,0.50
2022-12-27T01:05:17.208Z,0.60
2022-12-27T01:08:23.312Z,0.60
2022-12-27T01:11:30.898Z,0.50
2022-12-27T01:14:35.909Z,0.63
2022-12-27T01:17:40.663Z,0.80
2022-12-27T01:20:47.312Z,0.70
2022-12-27T01:23:52.682Z,0.80
2022-12-27T01:26:59.313Z,0.60
2022-12-27T01:30:04.454Z,0.37
2022-12-27T01:33:08.984Z,0.50
2022-12-27T01:36:16.253Z,0.80
2022-12-27T01:39:22.930Z,0.30
2022-12-27T01:42:49.582Z,0.37
2022-12-27T01:45:54.010Z,0.70
2022-12-27T01:48:58.751Z,0.60
2022-12-27T01:52:03.472Z,0.57
2022-12-27T01:55:15.739Z,0.60
2022-12-27T01:58:29.680Z,0.40
2022-12-27T02:01:38.185Z,0.70
2022-12-27T02:04:43.349Z,0.80
2022-12-27T02:07:57.845Z,0.27
2022-12-27T02:11:02.986Z,0.30
2022-12-27T02:14:09.914Z,0.33
2022-12-27T02:17:18.599Z,0.30
2022-12-27T02:20:25.925Z,0.53
2022-12-27T02:24:07.126Z,0.40
2022-12-27T02:27:26.471Z,0.60
2022-12-27T02:30:38.586Z,0.40
2022-12-27T02:33:53.967Z,0.40
2022-12-27T02:37:03.900Z,0.47
2022-12-27T02:40:43.560Z,0.30
2022-12-27T02:44:05.675Z,0.33
2022-12-27T02:47:37.818Z,0.40
2022-12-27T02:51:17.876Z,0.30
2022-12-27T02:54:43.457Z,0.47
2022-12-27T02:57:59.380Z,0.70
2022-12-27T03:01:28.785Z,0.50
2022-12-27T03:04:48.622Z,0.43
2022-12-27T03:08:00.573Z,0.50
2022-12-27T03:11:22.445Z,0.33
2022-12-27T03:14:47.497Z,0.50
2022-12-27T03:17:58.571Z,0.43
2022-12-27T03:21:25.087Z,0.40
2022-12-27T03:24:52.924Z,0.30
2022-12-27T03:28:14.222Z,0.60
2022-12-27T03:31:42.793Z,0.90
2022-12-27T03:34:52.870Z,0.50
2022-12-27T03:38:04.689Z,0.70
2022-12-27T03:41:28.240Z,0.50
2022-12-27T03:44:33.019Z,0.43
2022-12-27T03:47:44.740Z,0.50
2022-12-27T03:50:56.322Z,0.87
2022-12-27T03:54:08.194Z,0.47
2022-12-27T03:57:15.966Z,0.57
2022-12-27T04:00:20.930Z,0.53
2022-12-27T04:03:25.874Z,0.37
2022-12-27T04:06:31.386Z,0.40
2022-12-27T04:09:54.435Z,0.30
2022-12-27T04:13:16.388Z,0.50
2022-12-27T04:16:38.384Z,0.43
2022-12-27T04:19:59.639Z,0.50
2022-12-27T04:23:21.314Z,0.43
2022-12-27T04:26:44.133Z,0.20
2022-12-27T04:30:05.718Z,0.53
2022-12-27T04:33:27.248Z,0.43
2022-12-27T04:36:32.589Z,0.40
2022-12-27T04:39:37.722Z,0.40
2022-12-27T04:43:01.369Z,0.40
2022-12-27T04:46:25.361Z,0.60
2022-12-27T04:49:46.814Z,0.40
2022-12-27T04:53:08.639Z,0.30
2022-12-27T04:56:13.897Z,0.30
2022-12-27T04:59:36.823Z,0.60
2022-12-27T05:02:42.548Z,0.47
2022-12-27T05:05:49.279Z,0.40
2022-12-27T05:09:17.361Z,0.50
2022-12-27T05:12:42.915Z,0.53
2022-12-27T05:15:50.367Z,0.60
2022-12-27T05:18:55.136Z,0.70
2022-12-27T05:22:16.520Z,0.60
2022-12-27T05:25:39.179Z,0.50
2022-12-27T05:28:43.879Z,0.50
2022-12-27T05:31:50.567Z,0.47
2022-12-27T05:34:56.856Z,0.30
2022-12-27T05:38:01.254Z,0.43
2022-12-27T05:41:06.125Z,0.43
2022-12-27T05:44:10.765Z,0.50
2022-12-27T05:47:17.170Z,0.80
2022-12-27T05:50:24.129Z,0.60
2022-12-27T05:53:31.606Z,0.67
2022-12-27T05:56:37.758Z,0.60
2022-12-27T05:59:42.685Z,0.90
2022-12-27T06:02:50.065Z,0.50
2022-12-27T06:05:54.875Z,0.53
2022-12-27T06:09:00.948Z,0.70
2022-12-27T06:12:06.113Z,1.10
2022-12-27T06:15:12.262Z,0.43
2022-12-27T06:18:18.717Z,0.70
2022-12-27T06:21:26.339Z,0.80
2022-12-27T06:24:31.516Z,0.80
2022-12-27T06:27:37.081Z,0.43
2022-12-27T06:30:41.940Z,0.80
2022-12-27T06:33:48.658Z,0.70
2022-12-27T06:36:53.582Z,0.80
2022-12-27T06:39:58.871Z,0.60
2022-12-27T06:43:03.802Z,0.63
2022-12-27T06:46:17.031Z,1.17
2022-12-27T06:49:23.666Z,0.50
2022-12-27T06:52:28.570Z,0.90
2022-12-27T06:55:33.334Z,0.60
2022-12-27T06:58:41.995Z,0.63
2022-12-27T07:01:46.882Z,0.40
2022-12-27T07:04:53.035Z,0.60
2022-12-27T07:07:59.544Z,0.60
2022-12-27T07:11:05.020Z,0.67
2022-12-27T07:14:11.562Z,0.87
2022-12-27T07:17:16.397Z,0.70
2022-12-27T07:20:22.788Z,0.50
2022-12-27T07:23:28.123Z,0.80
2022-12-27T07:26:33.289Z,0.70
2022-12-27T07:29:45.060Z,0.67
2022-12-27T07:32:50.454Z,0.83
2022-12-27T07:36:01.980Z,0.70
2022-12-27T07:39:08.628Z,1.17
2022-12-27T07:42:13.317Z,0.60
2022-12-27T07:45:17.992Z,0.87
2022-12-27T07:48:23.163Z,0.80
2022-12-27T07:51:30.424Z,0.40
2022-12-27T07:54:34.767Z,0.90
2022-12-27T07:57:39.541Z,0.57
2022-12-27T08:00:44.333Z,0.77
2022-12-27T08:03:49.260Z,0.80
2022-12-27T08:06:59.704Z,0.50
2022-12-27T08:10:04.627Z,1.20
2022-12-27T08:13:09.443Z,0.90
2022-12-27T08:16:18.794Z,0.70
2022-12-27T08:19:23.542Z,0.87
2022-12-27T08:22:30.011Z,0.80
2022-12-27T08:25:34.999Z,0.90
2022-12-27T08:28:40.197Z,0.73
2022-12-27T08:31:45.345Z,0.90
2022-12-27T08:34:50.469Z,1.00
2022-12-27T08:37:56.559Z,2.47
2022-12-27T08:41:01.155Z,0.87
2022-12-27T08:44:06.000Z,1.13
2022-12-27T08:47:10.993Z,0.90
2022-12-27T08:50:17.463Z,0.87
2022-12-27T08:53:24.304Z,0.87
2022-12-27T08:56:29.595Z,0.80
2022-12-27T08:59:34.390Z,0.63
2022-12-27T09:02:40.081Z,0.70
2022-12-27T09:05:44.972Z,0.90
2022-12-27T09:08:52.879Z,0.90
2022-12-27T09:11:57.593Z,0.73
2022-12-27T09:15:02.344Z,0.80
2022-12-27T09:18:08.229Z,1.13
2022-12-27T09:21:17.353Z,0.80
2022-12-27T09:24:27.695Z,1.00
2022-12-27T09:27:32.456Z,0.60
2022-12-27T09:30:37.338Z,0.70
2022-12-27T09:33:42.800Z,0.90
2022-12-27T09:36:47.796Z,0.70
2022-12-27T09:39:55.052Z,0.70
2022-12-27T09:43:19.189Z,0.63
2022-12-27T09:46:33.683Z,0.70
2022-12-27T09:49:41.301Z,0.70
2022-12-27T09:52:55.219Z,0.30
2022-12-27T09:56:01.632Z,0.70
2022-12-27T09:59:15.965Z,0.70
2022-12-27T10:02:24.236Z,0.70
2022-12-27T10:05:35.169Z,0.67
2022-12-27T10:08:52.898Z,0.67
2022-12-27T10:12:07.328Z,0.93
2022-12-27T10:15:26.310Z,0.63
2022-12-27T10:18:41.069Z,0.80
2022-12-27T10:21:59.859Z,0.50
2022-12-27T10:25:08.324Z,0.70
2022-12-27T10:28:18.310Z,0.77
2022-12-27T10:31:25.841Z,0.90
2022-12-27T10:34:31.647Z,0.90
2022-12-27T10:37:36.623Z,0.60
2022-12-27T10:40:48.990Z,0.70
2022-12-27T10:43:56.618Z,0.67
2022-12-27T10:47:01.916Z,0.60
2022-12-27T10:50:14.870Z,0.90
2022-12-27T10:53:39.416Z,0.63
2022-12-27T10:56:45.679Z,0.80
2022-12-27T11:00:16.273Z,1.10
2022-12-27T11:03:22.010Z,0.70
2022-12-27T11:06:28.185Z,0.80
2022-12-27T11:09:34.877Z,0.70
2022-12-27T11:12:39.793Z,0.50
2022-12-27T11:15:58.755Z,0.97
2022-12-27T11:19:04.709Z,0.60
2022-12-27T11:22:10.931Z,0.73
2022-12-27T11:25:16.937Z,0.70
2022-12-27T11:28:28.082Z,0.50
2022-12-27T11:31:40.434Z,0.80
2022-12-27T11:34:49.502Z,0.40
2022-12-27T11:37:54.752Z,0.50
2022-12-27T11:41:04.383Z,0.67
2022-12-27T11:44:18.532Z,0.57
2022-12-27T11:47:33.825Z,0.47
2022-12-27T11:50:59.413Z,0.50
2022-12-27T11:54:31.426Z,0.60
2022-12-27T11:58:00.836Z,0.70
2022-12-27T12:01:27.949Z,0.73
2022-12-27T12:05:08.464Z,0.63
2022-12-27T12:08:31.111Z,0.60
2022-12-27T12:11:54.899Z,0.60
2022-12-27T12:15:30.698Z,0.70
2022-12-27T12:19:06.254Z,0.50
2022-12-27T12:22:31.389Z,0.80
2022-12-27T12:26:13.061Z,0.65
2022-12-27T12:29:42.056Z,0.80
2022-12-27T12:33:02.994Z,0.60
2022-12-27T12:36:29.528Z,1.20
2022-12-27T12:39:53.793Z,0.80
2022-12-27T12:43:14.249Z,0.60
2022-12-27T12:46:32.599Z,0.63
2022-12-27T12:50:06.565Z,0.60
2022-12-27T12:53:36.463Z,0.60
2022-12-27T12:57:01.148Z,1.00
2022-12-27T13:00:24.060Z,1.20
2022-12-27T13:03:46.338Z,0.60
2022-12-27T13:07:25.223Z,0.70
2022-12-27T13:10:59.281Z,0.70
2022-12-27T13:14:26.284Z,0.90
2022-12-27T13:17:38.297Z,0.80
2022-12-27T13:20:55.409Z,0.63
2022-12-27T13:24:09.506Z,0.80
2022-12-27T13:27:22.884Z,1.00
2022-12-27T13:30:35.210Z,0.68
2022-12-27T13:33:50.712Z,2.22
2022-12-27T13:37:10.249Z,0.52
2022-12-27T13:40:36.869Z,0.77
2022-12-27T13:43:58.941Z,0.70
2022-12-27T13:47:41.886Z,0.90
2022-12-27T13:51:09.231Z,0.73
2022-12-27T13:54:44.011Z,0.80
2022-12-27T13:58:27.094Z,0.52
2022-12-27T14:02:02.807Z,0.70
2022-12-27T14:05:52.360Z,0.73
2022-12-27T14:09:36.352Z,0.70
2022-12-27T14:12:56.643Z,0.75
2022-12-27T14:16:31.287Z,0.80
2022-12-27T14:19:53.998Z,0.70
2022-12-27T14:23:17.898Z,0.50
2022-12-27T14:26:57.918Z,0.67
2022-12-27T14:30:28.220Z,0.90
2022-12-27T14:34:17.644Z,1.47
2022-12-27T14:37:49.352Z,1.93
2022-12-27T14:41:43.910Z,1.10
2022-12-27T14:45:18.140Z,1.10
2022-12-27T14:48:40.302Z,1.23
2022-12-27T14:52:17.471Z,0.73
2022-12-27T14:55:36.908Z,0.87
2022-12-27T14:58:53.185Z,0.97
2022-12-27T15:02:09.831Z,1.43
2022-12-27T15:05:22.153Z,1.40
2022-12-27T15:08:43.205Z,1.17
2022-12-27T15:11:58.133Z,1.80
2022-12-27T15:15:34.433Z,3.70
2022-12-27T15:18:56.526Z,1.30
2022-12-27T15:22:12.559Z,1.40
2022-12-27T15:25:25.274Z,1.17
2022-12-27T15:28:37.233Z,1.20
2022-12-27T15:31:53.922Z,0.60
2022-12-27T15:35:16.122Z,1.30
2022-12-27T15:38:40.988Z,1.00
2022-12-27T15:42:02.309Z,0.90
2022-12-27T15:45:14.324Z,0.93
2022-12-27T15:48:53.445Z,2.23
2022-12-27T15:52:04.402Z,1.70
2022-12-27T15:55:22.581Z,1.63
2022-12-27T15:58:27.121Z,1.10
2022-12-27T16:01:30.428Z,1.87
2022-12-27T16:04:47.495Z,1.40
2022-12-27T16:07:52.433Z,1.60
2022-12-27T16:10:57.678Z,2.07
2022-12-27T16:14:33.277Z,2.30
2022-12-27T16:17:43.155Z,2.90
2022-12-27T16:20:56.481Z,2.10
2022-12-27T16:24:11.899Z,1.77
2022-12-27T16:27:28.551Z,2.10
2022-12-27T16:30:42.186Z,2.17
2022-12-27T16:33:44.959Z,1.20
2022-12-27T16:36:49.021Z,1.50
2022-12-27T16:40:05.211Z,1.30
2022-12-27T16:43:46.969Z,1.50
2022-12-27T16:47:03.516Z,1.70
2022-12-27T16:50:22.491Z,2.33
2022-12-27T16:53:51.503Z,2.10
2022-12-27T16:57:33.837Z,2.50
2022-12-27T17:00:39.990Z,1.60
2022-12-27T17:03:53.627Z,2.10
2022-12-27T17:06:57.787Z,1.97
2022-12-27T17:10:32.328Z,2.33
2022-12-27T17:13:43.125Z,3.47
2022-12-27T17:16:49.129Z,2.17
2022-12-27T17:19:57.931Z,3.50
2022-12-27T17:23:01.038Z,2.63
2022-12-27T17:26:21.935Z,2.90
2022-12-27T17:29:58.166Z,1.97
2022-12-27T17:33:26.865Z,1.97
2022-12-27T17:36:48.573Z,1.53
2022-12-27T17:40:06.553Z,1.50
2022-12-27T17:43:41.957Z,1.80
2022-12-27T17:46:55.511Z,2.27
2022-12-27T17:50:00.134Z,1.87
2022-12-27T17:53:35.182Z,1.80
2022-12-27T17:57:02.667Z,1.73
2022-12-27T18:00:24.588Z,2.10
2022-12-27T18:03:35.121Z,2.20
2022-12-27T18:06:40.247Z,2.43
2022-12-27T18:09:49.878Z,2.43
2022-12-27T18:12:57.220Z,2.23
2022-12-27T18:16:16.596Z,2.73
2022-12-27T18:19:23.153Z,2.60
2022-12-27T18:22:29.123Z,2.37
2022-12-27T18:25:36.710Z,2.30
2022-12-27T18:28:42.897Z,2.43
2022-12-27T18:31:50.910Z,2.53
2022-12-27T18:35:02.695Z,2.30
2022-12-27T18:38:09.672Z,2.07
2022-12-27T18:41:18.989Z,2.50
2022-12-27T18:44:27.643Z,2.23
2022-12-27T18:47:36.217Z,2.30
2022-12-27T18:50:50.080Z,2.00
2022-12-27T18:53:54.604Z,2.50
2022-12-27T18:57:01.151Z,2.90
2022-12-27T19:00:23.072Z,2.87
2022-12-27T19:03:27.989Z,3.30
2022-12-27T19:06:35.199Z,2.63
2022-12-27T19:09:44.778Z,3.20
2022-12-27T19:12:49.487Z,2.80
2022-12-27T19:15:55.495Z,3.47
2022-12-27T19:19:06.203Z,3.63
2022-12-27T19:22:33.930Z,3.13
2022-12-27T19:25:40.269Z,3.73
2022-12-27T19:28:46.562Z,2.90
2022-12-27T19:31:57.141Z,3.43
2022-12-27T19:35:05.195Z,3.10
2022-12-27T19:38:20.071Z,3.17
2022-12-27T19:41:25.399Z,2.87
2022-12-27T19:44:30.443Z,2.30
2022-12-27T19:47:40.193Z,2.50
2022-12-27T19:50:50.952Z,3.20
2022-12-27T19:53:58.176Z,1.73
2022-12-27T19:57:03.103Z,2.03
2022-12-27T20:00:14.847Z,1.83
2022-12-27T20:03:19.712Z,1.90
2022-12-27T20:06:28.332Z,2.20
2022-12-27T20:09:34.568Z,1.90
2022-12-27T20:12:39.453Z,2.70
2022-12-27T20:15:44.247Z,1.90
2022-12-27T20:18:49.159Z,1.90
2022-12-27T20:21:54.167Z,1.90
2022-12-27T20:25:01.021Z,1.77
2022-12-27T20:28:07.156Z,1.23
2022-12-27T20:31:15.547Z,1.43
2022-12-27T20:34:20.579Z,1.40
2022-12-27T20:37:24.902Z,3.00
2022-12-27T20:40:30.998Z,2.40
2022-12-27T20:43:36.911Z,4.53
2022-12-27T20:46:43.077Z,3.50
2022-12-27T20:49:48.625Z,3.60
2022-12-27T20:52:54.081Z,5.87
2022-12-27T20:56:03.451Z,4.83
2022-12-27T20:59:07.508Z,4.30
2022-12-27T21:02:12.997Z,5.77
2022-12-27T21:05:17.377Z,5.50
2022-12-27T21:08:24.012Z,6.50
2022-12-27T21:11:31.809Z,6.40
2022-12-27T21:14:37.449Z,4.00
2022-12-27T21:17:43.273Z,4.43
2022-12-27T21:20:47.171Z,4.03
2022-12-27T21:23:52.021Z,3.20
2022-12-27T21:26:57.733Z,3.33
2022-12-27T21:30:01.983Z,4.07
2022-12-27T21:33:05.930Z,4.60
2022-12-27T21:36:12.651Z,3.17
2022-12-27T21:39:16.421Z,2.50
2022-12-27T21:42:21.469Z,3.13
2022-12-27T21:45:25.142Z,3.27
2022-12-27T21:48:29.826Z,3.33
2022-12-27T21:51:34.835Z,2.77
2022-12-27T21:54:38.440Z,2.40
2022-12-27T21:57:43.566Z,2.83
2022-12-27T22:00:47.352Z,2.37
2022-12-27T22:03:52.605Z,2.33
2022-12-27T22:06:56.235Z,2.17
2022-12-27T22:10:00.204Z,2.10
2022-12-27T22:13:05.340Z,2.03
2022-12-27T22:16:14.120Z,1.90
2022-12-27T22:19:17.944Z,1.77
2022-12-27T22:22:21.696Z,1.90
2022-12-27T22:25:26.700Z,2.03
2022-12-27T22:28:32.987Z,3.40
2022-12-27T22:31:38.379Z,2.47
2022-12-27T22:34:43.106Z,1.60
2022-12-27T22:37:47.639Z,1.23
2022-12-27T22:40:54.299Z,1.83
2022-12-27T22:44:02.513Z,1.77
2022-12-27T22:50:41.077Z,1.80
2022-12-27T22:53:45.660Z,2.03
2022-12-27T22:56:50.632Z,1.97
2022-12-27T22:59:57.726Z,2.33
2022-12-27T23:03:02.713Z,2.57
2022-12-27T23:06:07.377Z,2.03
2022-12-27T23:09:14.824Z,1.60
2022-12-27T23:12:21.606Z,1.60
2022-12-27T23:15:28.366Z,1.80
2022-12-27T23:18:34.156Z,1.93
2022-12-27T23:21:39.677Z,1.07
2022-12-27T23:24:43.777Z,1.50
2022-12-27T23:27:47.726Z,1.60
2022-12-27T23:30:53.496Z,1.10
2022-12-27T23:33:57.909Z,1.57
2022-12-27T23:37:02.347Z,1.17
2022-12-27T23:40:07.709Z,1.53
2022-12-27T23:43:50.648Z,1.67
2022-12-27T23:46:38.516Z,2.63
2022-12-27T23:49:42.956Z,1.80
2022-12-27T23:52:47.531Z,1.33
2022-12-27T23:55:57.906Z,1.63
2022-12-27T23:59:02.825Z,1.63
